Time;durP1;ratioP1;P1;durP2;ratioP2;P2;SDS_P1;SDS_P2;PMS_P1;PMS_P2;Temp;Humidity;BMP_temperature;BMP_pressure;BME280_temperature;BME280_humidity;BME280_pressure;Samples;Min_cycle;Max_cycle;Signal;HPM_P1;HPM_P2
2021/04/19 03:11:51;;;;;;;2.33;2.00;;;33.80;75.80;;;;;;5007109;28;20301;-52
2021/04/19 03:14:23;;;;;;;2.10;1.90;;;33.90;76.50;;;;;;4969082;28;20240;-51
2021/04/19 03:16:57;;;;;;;3.22;2.47;;;33.90;75.10;;;;;;4968985;28;20211;-49
2021/04/19 03:19:28;;;;;;;2.97;2.00;;;34.00;74.30;;;;;;4969437;28;20207;-49
2021/04/19 03:21:58;;;;;;;2.88;1.90;;;34.00;74.80;;;;;;4912213;29;20242;-55
2021/04/19 03:24:29;;;;;;;3.30;1.52;;;34.00;74.00;;;;;;4912061;29;20623;-50
2021/04/19 03:27:01;;;;;;;1.95;1.70;;;34.10;73.40;;;;;;4911724;29;20241;-50
2021/04/19 03:29:31;;;;;;;2.22;2.03;;;34.10;74.10;;;;;;4911706;29;20246;-55
2021/04/19 03:32:06;;;;;;;1.85;1.60;;;34.20;74.30;;;;;;4912201;29;20306;-49
2021/04/19 03:34:36;;;;;;;2.45;2.00;;;34.20;74.40;;;;;;4912183;29;20218;-50
2021/04/19 03:37:08;;;;;;;1.83;1.52;;;34.30;73.60;;;;;;4855240;29;20224;-51
2021/04/19 03:39:38;;;;;;;2.22;1.80;;;34.30;73.30;;;;;;4899919;29;20298;-50
2021/04/19 03:42:09;;;;;;;3.63;1.90;;;34.30;73.00;;;;;;4912055;29;20222;-53
2021/04/19 03:44:40;;;;;;;3.58;2.05;;;34.30;73.10;;;;;;4911901;29;20219;-51
2021/04/19 03:47:10;;;;;;;2.63;2.13;;;34.40;73.60;;;;;;4911274;29;20218;-52
2021/04/19 03:49:44;;;;;;;2.63;2.20;;;34.50;73.70;;;;;;4854612;29;20714;-52
2021/04/19 03:52:15;;;;;;;2.20;2.00;;;34.40;73.60;;;;;;4866257;29;20215;-51
2021/04/19 03:54:47;;;;;;;3.28;2.00;;;34.40;73.30;;;;;;4910049;29;20246;-50
2021/04/19 03:57:19;;;;;;;2.03;1.80;;;34.40;72.50;;;;;;4908839;29;20235;-50
2021/04/19 03:59:52;;;;;;;2.47;1.83;;;34.40;72.60;;;;;;4908511;29;20690;-50
2021/04/19 04:02:22;;;;;;;2.78;2.20;;;34.30;72.90;;;;;;4905157;29;20246;-49
2021/04/19 04:04:53;;;;;;;2.30;2.10;;;34.30;73.20;;;;;;4900654;29;20222;-51
2021/04/19 04:07:23;;;;;;;2.42;2.22;;;34.30;73.40;;;;;;4920935;28;20217;-52
2021/04/19 04:09:54;;;;;;;4.22;2.25;;;34.30;73.30;;;;;;4911030;29;20375;-50
2021/04/19 04:12:25;;;;;;;2.28;2.08;;;34.30;73.40;;;;;;4910462;29;20312;-50
2021/04/19 04:14:57;;;;;;;2.20;1.98;;;34.20;73.70;;;;;;4873461;29;20835;-49
2021/04/19 04:17:28;;;;;;;2.92;2.45;;;34.20;73.60;;;;;;4873604;29;20667;-51
2021/04/19 04:19:58;;;;;;;2.78;2.25;;;34.10;73.60;;;;;;4885578;29;20220;-53
2021/04/19 04:22:29;;;;;;;2.30;2.10;;;34.10;73.40;;;;;;4929483;29;20576;-54
2021/04/19 04:24:59;;;;;;;2.47;2.28;;;34.00;74.10;;;;;;4919586;29;20462;-54
2021/04/19 04:27:30;;;;;;;4.30;3.13;;;34.00;74.30;;;;;;4929549;29;20230;-50
2021/04/19 04:30:01;;;;;;;3.88;3.10;;;34.00;74.50;;;;;;4930266;29;20292;-54
2021/04/19 04:32:31;;;;;;;3.70;3.40;;;34.00;74.70;;;;;;4929633;29;20273;-52
2021/04/19 04:35:02;;;;;;;5.05;3.90;;;34.00;75.10;;;;;;4957548;28;20201;-52
2021/04/19 04:37:32;;;;;;;3.72;2.20;;;34.10;75.00;;;;;;4968439;28;20259;-51
2021/04/19 04:40:02;;;;;;;3.30;2.85;;;34.10;74.00;;;;;;4998839;28;20215;-52
2021/04/19 04:42:34;;;;;;;3.80;3.35;;;34.10;74.20;;;;;;5010078;28;20210;-50
2021/04/19 04:45:05;;;;;;;2.35;1.90;;;34.20;74.50;;;;;;5008575;28;20227;-50
2021/04/19 04:47:37;;;;;;;3.72;1.60;;;34.30;73.50;;;;;;5009932;28;20731;-52
2021/04/19 04:50:13;;;;;;;2.22;1.98;;;34.30;73.10;;;;;;5009675;28;20219;-52
2021/04/19 04:52:47;;;;;;;3.63;2.22;;;34.30;73.30;;;;;;5009471;28;20203;-53
2021/04/19 04:55:18;;;;;;;2.60;2.40;;;34.40;73.80;;;;;;4966778;28;20216;-51
2021/04/19 04:57:51;;;;;;;2.42;2.20;;;34.50;72.30;;;;;;4957613;28;20228;-51
2021/04/19 05:00:22;;;;;;;2.80;2.08;;;34.50;72.30;;;;;;4968148;28;20205;-51
2021/04/19 05:02:53;;;;;;;2.38;1.90;;;34.60;72.10;;;;;;4909975;29;20298;-52
2021/04/19 05:05:23;;;;;;;2.92;2.28;;;34.70;72.10;;;;;;4910031;29;20230;-49
2021/04/19 05:07:54;;;;;;;2.67;2.47;;;34.70;71.90;;;;;;4910098;29;20738;-50
2021/04/19 05:10:24;;;;;;;4.78;3.30;;;34.80;71.50;;;;;;4909931;29;20218;-50
2021/04/19 05:12:55;;;;;;;2.78;1.83;;;34.80;70.50;;;;;;4909426;29;20892;-50
2021/04/19 05:15:26;;;;;;;2.15;1.63;;;34.90;69.90;;;;;;4910306;29;20217;-49
2021/04/19 05:17:57;;;;;;;2.15;1.73;;;34.90;69.50;;;;;;4909670;29;20213;-55
2021/04/19 05:20:27;;;;;;;2.00;1.52;;;34.90;69.70;;;;;;4953430;28;20844;-52
2021/04/19 05:22:58;;;;;;;1.55;1.40;;;35.00;69.20;;;;;;4967818;28;20236;-52
2021/04/19 05:25:28;;;;;;;1.10;1.00;;;35.00;69.00;;;;;;4967485;28;20318;-52
2021/04/19 05:28:01;;;;;;;1.48;1.20;;;35.10;69.70;;;;;;4966789;28;20228;-53
2021/04/19 05:30:31;;;;;;;1.63;1.30;;;35.10;68.30;;;;;;4956571;28;20192;-50
2021/04/19 05:33:01;;;;;;;3.15;1.55;;;35.10;67.80;;;;;;4973397;28;20307;-49
2021/04/19 05:35:31;;;;;;;1.98;1.00;;;35.10;67.70;;;;;;5009336;28;20622;-51
2021/04/19 05:38:02;;;;;;;2.00;1.52;;;35.20;67.70;;;;;;5008761;28;20227;-53
2021/04/19 05:40:32;;;;;;;2.47;1.40;;;35.20;67.50;;;;;;5008838;28;20203;-52
2021/04/19 05:43:05;;;;;;;2.00;1.15;;;35.20;66.70;;;;;;5009530;28;20199;-52
2021/04/19 05:45:36;;;;;;;1.40;1.10;;;35.20;66.40;;;;;;5009395;28;20643;-49
2021/04/19 05:48:08;;;;;;;1.33;1.08;;;35.20;66.90;;;;;;5009064;28;20199;-50
2021/04/19 05:50:38;;;;;;;1.63;1.20;;;35.20;67.50;;;;;;4985743;28;20211;-54
2021/04/19 05:53:09;;;;;;;1.80;1.42;;;35.20;67.90;;;;;;4987016;28;20267;-53
2021/04/19 05:55:39;;;;;;;1.63;1.10;;;35.20;68.10;;;;;;4987088;28;20690;-53
2021/04/19 05:58:16;;;;;;;2.20;1.27;;;35.30;69.00;;;;;;4986579;28;20875;-54
2021/04/19 06:00:50;;;;;;;2.03;1.40;;;35.30;67.50;;;;;;4985279;28;20204;-53
2021/04/19 06:03:22;;;;;;;2.35;1.50;;;35.40;68.00;;;;;;4982002;28;20204;-50
2021/04/19 06:06:03;;;;;;;2.15;1.38;;;35.50;67.60;;;;;;4979300;28;20278;-52
2021/04/19 06:08:46;;;;;;;2.28;1.15;;;35.50;68.20;;;;;;4909829;29;20294;-53
2021/04/19 06:11:19;;;;;;;1.58;1.25;;;35.60;69.20;;;;;;4908065;29;20698;-53
2021/04/19 06:13:50;;;;;;;2.10;1.60;;;35.70;69.60;;;;;;4918393;29;20202;-54
2021/04/19 06:16:21;;;;;;;1.40;1.27;;;35.80;69.80;;;;;;4922704;29;20289;-51
2021/04/19 06:18:53;;;;;;;1.23;1.13;;;35.90;69.70;;;;;;4921443;29;20221;-54
2021/04/19 06:21:23;;;;;;;2.25;1.23;;;35.90;69.80;;;;;;4930765;29;20217;-53
2021/04/19 06:23:54;;;;;;;1.27;1.13;;;36.00;69.70;;;;;;4935632;29;20206;-55
2021/04/19 06:26:24;;;;;;;1.58;1.30;;;36.00;70.60;;;;;;4929330;29;20658;-54
2021/04/19 06:28:55;;;;;;;1.50;1.05;;;36.00;69.80;;;;;;4931714;29;20282;-51
2021/04/19 06:31:29;;;;;;;2.65;1.42;;;36.10;70.10;;;;;;4977592;28;20761;-55
2021/04/19 06:34:07;;;;;;;1.67;1.13;;;36.10;70.00;;;;;;5006165;28;20237;-53
2021/04/19 06:36:38;;;;;;;1.25;1.15;;;36.10;69.90;;;;;;5012123;28;20651;-51
2021/04/19 06:39:10;;;;;;;1.77;1.40;;;36.20;70.10;;;;;;5021947;28;20199;-52
2021/04/19 06:41:40;;;;;;;1.48;1.02;;;36.20;70.30;;;;;;5022845;28;20654;-55
2021/04/19 06:44:13;;;;;;;1.45;1.00;;;36.20;69.80;;;;;;5023376;28;20196;-53
2021/04/19 06:46:44;;;;;;;1.58;1.27;;;36.30;69.90;;;;;;5017643;28;20245;-55
2021/04/19 06:49:15;;;;;;;1.50;1.05;;;36.30;69.60;;;;;;5015017;28;20201;-51
2021/04/19 06:51:46;;;;;;;1.25;1.10;;;36.30;69.10;;;;;;5015036;28;20215;-50
2021/04/19 06:54:16;;;;;;;1.70;1.30;;;36.40;69.50;;;;;;5011380;28;20235;-54
2021/04/19 06:56:47;;;;;;;2.50;1.15;;;36.50;69.30;;;;;;5011547;28;20192;-54
2021/04/19 06:59:20;;;;;;;1.60;1.40;;;36.50;69.30;;;;;;5011634;28;20234;-53
2021/04/19 07:01:52;;;;;;;1.60;1.20;;;36.60;68.00;;;;;;5011106;28;20194;-53
2021/04/19 07:04:25;;;;;;;3.75;1.45;;;36.60;65.70;;;;;;5010495;28;20372;-52
2021/04/19 07:06:56;;;;;;;1.58;1.30;;;36.60;65.80;;;;;;4960582;28;20227;-51
2021/04/19 07:09:27;;;;;;;2.45;1.80;;;36.60;65.50;;;;;;4958001;28;20205;-53
2021/04/19 07:11:59;;;;;;;2.30;1.33;;;36.50;65.70;;;;;;4960588;28;20260;-54
2021/04/19 07:14:31;;;;;;;1.50;1.40;;;36.40;65.50;;;;;;4962008;28;20209;-51
2021/04/19 07:17:02;;;;;;;1.77;1.40;;;36.30;65.40;;;;;;4957789;28;20268;-54
2021/04/19 07:19:33;;;;;;;3.55;1.20;;;36.20;66.30;;;;;;4957019;28;20224;-49
2021/04/19 07:22:04;;;;;;;3.00;1.17;;;36.20;66.10;;;;;;4960429;28;20213;-53
2021/04/19 07:24:36;;;;;;;1.17;0.90;;;36.20;65.00;;;;;;4917383;29;20358;-52
2021/04/19 07:27:07;;;;;;;1.45;1.13;;;36.10;65.60;;;;;;4921775;29;20222;-52
2021/04/19 07:29:39;;;;;;;1.63;1.20;;;36.10;65.20;;;;;;4927062;29;20846;-54
2021/04/19 07:32:10;;;;;;;1.67;1.40;;;36.20;66.00;;;;;;4966234;28;20227;-51
2021/04/19 07:34:41;;;;;;;3.35;1.67;;;36.20;66.10;;;;;;4985023;28;20192;-51
2021/04/19 07:37:13;;;;;;;3.72;1.55;;;36.10;65.30;;;;;;4984061;28;20236;-52
2021/04/19 07:39:44;;;;;;;2.97;1.30;;;36.10;65.50;;;;;;4985334;28;20204;-54
2021/04/19 07:42:14;;;;;;;1.77;1.40;;;36.10;66.30;;;;;;4984950;28;20243;-50
2021/04/19 07:44:46;;;;;;;2.22;1.30;;;36.00;66.00;;;;;;4930163;29;20807;-55
2021/04/19 07:47:30;;;;;;;1.42;1.10;;;36.00;66.30;;;;;;4929354;29;20229;-53
2021/04/19 07:50:15;;;;;;;2.20;1.40;;;36.00;66.00;;;;;;4928083;29;20205;-51
2021/04/19 07:52:54;;;;;;;1.85;1.33;;;36.00;66.20;;;;;;4930646;29;20914;-50
2021/04/19 07:55:25;;;;;;;1.38;1.27;;;36.00;66.60;;;;;;4943458;28;20253;-53
2021/04/19 07:58:18;;;;;;;1.40;1.15;;;36.00;66.50;;;;;;4959267;28;20197;-52
2021/04/19 08:00:49;;;;;;;1.65;1.40;;;36.00;66.40;;;;;;4930262;29;20217;-52
2021/04/19 08:03:20;;;;;;;1.60;1.48;;;36.00;64.80;;;;;;4929787;29;20637;-55
2021/04/19 08:05:51;;;;;;;3.58;2.72;;;36.00;64.90;;;;;;4929229;29;20540;-49
2021/04/19 08:08:30;;;;;;;3.42;3.10;;;36.00;65.10;;;;;;4924732;28;20199;-54
2021/04/19 08:11:08;;;;;;;2.30;1.80;;;36.00;65.20;;;;;;4968580;28;20775;-51
2021/04/19 08:13:38;;;;;;;2.28;1.10;;;36.10;65.00;;;;;;4968237;28;20240;-50
2021/04/19 08:16:16;;;;;;;0.90;0.90;;;36.10;64.40;;;;;;4967838;28;20228;-55
2021/04/19 08:18:52;;;;;;;2.55;1.30;;;36.20;63.50;;;;;;4968302;28;20205;-52
2021/04/19 08:21:27;;;;;;;2.10;1.17;;;36.20;64.00;;;;;;4968592;28;20209;-52
2021/04/19 08:23:58;;;;;;;2.15;1.20;;;36.20;63.70;;;;;;4968176;28;20247;-47
2021/04/19 08:26:43;;;;;;;2.60;1.10;;;36.20;63.20;;;;;;4909639;29;20246;-49
2021/04/19 08:29:14;;;;;;;1.33;1.00;;;36.30;62.60;;;;;;4854490;29;20295;-50
2021/04/19 08:31:46;;;;;;;1.88;1.05;;;36.30;63.20;;;;;;4883541;29;20239;-49
2021/04/19 08:34:16;;;;;;;1.48;1.00;;;36.40;62.60;;;;;;4908931;29;20206;-51
2021/04/19 08:36:47;;;;;;;1.95;1.10;;;36.40;62.30;;;;;;4910061;29;20207;-49
2021/04/19 08:39:17;;;;;;;2.92;0.95;;;36.50;62.50;;;;;;4910421;29;20308;-51
2021/04/19 08:41:48;;;;;;;1.00;0.80;;;36.50;61.90;;;;;;4910493;29;20203;-48
2021/04/19 08:44:18;;;;;;;0.95;0.80;;;36.50;61.70;;;;;;4910429;29;20215;-49
2021/04/19 08:46:50;;;;;;;1.33;1.10;;;36.50;61.90;;;;;;4909858;29;20234;-51
2021/04/19 08:49:21;;;;;;;1.40;0.80;;;36.60;61.90;;;;;;4900938;29;20215;-50
2021/04/19 08:51:52;;;;;;;1.70;1.00;;;36.60;62.10;;;;;;4910544;29;20203;-48
2021/04/19 08:54:22;;;;;;;2.80;1.10;;;36.60;61.90;;;;;;4910566;29;20679;-51
2021/04/19 08:56:53;;;;;;;1.20;1.00;;;36.60;61.50;;;;;;4923778;28;20236;-50
2021/04/19 08:59:34;;;;;;;1.25;0.60;;;36.60;61.30;;;;;;4970312;28;20711;-48
2021/04/19 09:02:06;;;;;;;2.25;0.90;;;36.50;61.10;;;;;;5009452;28;20215;-48
2021/04/19 09:04:36;;;;;;;1.35;0.80;;;36.50;61.00;;;;;;5009673;28;20208;-50
2021/04/19 09:07:06;;;;;;;1.50;0.98;;;36.60;61.10;;;;;;5006948;28;20318;-50
2021/04/19 09:09:41;;;;;;;1.30;0.98;;;36.60;61.00;;;;;;5008164;28;20204;-48
2021/04/19 09:12:29;;;;;;;2.05;0.70;;;36.60;61.40;;;;;;5008887;28;20243;-48
2021/04/19 09:15:20;;;;;;;1.45;0.93;;;36.60;61.90;;;;;;5008961;28;20195;-51
2021/04/19 09:18:05;;;;;;;2.13;0.85;;;36.60;61.40;;;;;;5008165;28;20215;-48
2021/04/19 09:20:51;;;;;;;1.10;0.80;;;36.60;61.60;;;;;;5007222;28;20246;-47
2021/04/19 09:23:24;;;;;;;1.20;0.82;;;36.60;61.10;;;;;;5007323;28;20296;-49
2021/04/19 09:25:54;;;;;;;1.20;0.77;;;36.60;60.60;;;;;;5008238;28;20218;-48
2021/04/19 09:28:57;;;;;;;2.10;0.90;;;36.70;60.70;;;;;;5008751;28;20219;-49
2021/04/19 09:32:01;;;;;;;1.85;1.10;;;36.70;59.50;;;;;;5008977;28;20743;-52
2021/04/19 09:34:43;;;;;;;1.58;1.10;;;36.70;59.80;;;;;;5006817;28;20245;-49
2021/04/19 09:37:13;;;;;;;1.88;0.98;;;36.70;59.30;;;;;;5008572;28;20199;-52
2021/04/19 09:39:48;;;;;;;3.85;1.25;;;36.70;59.80;;;;;;5008434;28;20294;-48
2021/04/19 09:42:18;;;;;;;1.52;1.20;;;36.70;59.90;;;;;;5008180;28;20691;-52
2021/04/19 09:44:53;;;;;;;1.33;1.08;;;36.70;60.60;;;;;;5005884;28;20203;-50
2021/04/19 09:47:53;;;;;;;1.50;1.17;;;36.80;61.10;;;;;;5008297;28;21015;-49
2021/04/19 09:50:24;;;;;;;1.05;0.90;;;36.80;61.50;;;;;;5004275;28;20286;-49
2021/04/19 09:52:55;;;;;;;1.63;0.90;;;36.90;60.10;;;;;;4999433;28;20200;-50
2021/04/19 09:55:25;;;;;;;1.70;1.10;;;36.90;60.00;;;;;;5010625;28;20290;-49
2021/04/19 09:57:55;;;;;;;2.40;1.08;;;36.90;60.20;;;;;;5012676;28;20210;-49
2021/04/19 10:00:26;;;;;;;1.75;1.00;;;36.90;60.20;;;;;;5012189;28;20257;-49
2021/04/19 10:02:56;;;;;;;1.05;0.95;;;36.90;60.50;;;;;;5007464;28;20202;-54
2021/04/19 10:05:28;;;;;;;1.88;1.30;;;37.00;60.80;;;;;;4970972;28;20219;-48
2021/04/19 10:07:59;;;;;;;3.03;1.30;;;36.90;61.30;;;;;;4971235;28;20745;-49
2021/04/19 10:10:29;;;;;;;1.35;1.10;;;37.00;61.60;;;;;;4913228;29;20330;-50
2021/04/19 10:12:59;;;;;;;2.65;2.35;;;36.90;61.80;;;;;;4912665;29;20254;-51
2021/04/19 10:15:32;;;;;;;3.22;2.92;;;36.90;61.70;;;;;;4913514;29;20250;-49
2021/04/19 10:18:11;;;;;;;5.63;4.53;;;36.90;61.90;;;;;;4913231;29;20294;-52
2021/04/19 10:20:43;;;;;;;3.95;2.70;;;36.90;61.50;;;;;;4913174;29;20226;-52
2021/04/19 10:23:14;;;;;;;2.25;1.90;;;36.90;61.70;;;;;;4912523;29;21622;-47
2021/04/19 10:25:47;;;;;;;2.50;1.70;;;36.80;62.20;;;;;;4912825;29;20747;-50
2021/04/19 10:28:28;;;;;;;2.28;1.80;;;36.90;62.90;;;;;;4913240;29;20321;-51
2021/04/19 10:31:14;;;;;;;1.88;1.30;;;37.00;63.60;;;;;;4964952;28;20204;-50
2021/04/19 10:33:45;;;;;;;2.00;1.58;;;37.20;62.60;;;;;;4969755;28;20207;-49
2021/04/19 10:36:18;;;;;;;1.35;1.00;;;37.50;63.10;;;;;;4970256;28;20215;-49
2021/04/19 10:38:49;;;;;;;2.72;1.20;;;37.90;63.40;;;;;;4978012;28;20202;-51
2021/04/19 10:41:29;;;;;;;1.65;1.23;;;38.40;63.50;;;;;;4987238;28;20200;-49
2021/04/19 10:44:00;;;;;;;1.38;1.02;;;39.00;62.10;;;;;;5012780;28;20250;-50
2021/04/19 10:46:31;;;;;;;3.10;1.58;;;39.50;61.80;;;;;;5012336;28;20716;-48
2021/04/19 10:49:03;;;;;;;3.00;1.67;;;40.10;60.30;;;;;;5017788;28;20195;-48
2021/04/19 10:51:35;;;;;;;3.10;1.45;;;40.50;58.20;;;;;;5011140;28;20577;-49
2021/04/19 10:54:06;;;;;;;1.88;1.13;;;41.00;57.60;;;;;;5011482;28;20226;-47
2021/04/19 10:56:39;;;;;;;2.45;1.45;;;41.30;57.10;;;;;;5009710;28;20318;-51
2021/04/19 11:01:59;;;;;;;3.22;1.88;;;41.90;54.40;;;;;;5327941;23;21021;-50
2021/04/19 11:04:31;;;;;;;2.83;1.80;;;42.00;54.20;;;;;;4986575;28;20204;-48
2021/04/19 11:07:27;;;;;;;2.17;1.90;;;41.90;53.80;;;;;;4995994;28;20709;-49
2021/04/19 11:10:14;;;;;;;2.63;1.75;;;41.90;52.90;;;;;;4981629;28;20212;-47
2021/04/19 11:12:56;;;;;;;2.78;1.98;;;41.70;53.00;;;;;;4990166;28;20216;-51
2021/04/19 11:15:31;;;;;;;2.53;1.80;;;41.40;53.30;;;;;;4990676;28;20208;-52
2021/04/19 11:18:01;;;;;;;2.80;2.30;;;41.10;53.60;;;;;;4991687;28;20188;-50
2021/04/19 11:20:33;;;;;;;3.28;1.95;;;40.70;54.00;;;;;;4989344;28;20306;-48
2021/04/19 11:23:05;;;;;;;3.58;2.10;;;40.30;54.60;;;;;;4991602;28;20192;-49
2021/04/19 11:25:37;;;;;;;4.03;2.20;;;39.80;55.20;;;;;;4990831;28;20227;-48
2021/04/19 11:28:22;;;;;;;2.45;2.03;;;39.40;56.40;;;;;;4991342;28;20220;-50
2021/04/19 11:30:53;;;;;;;6.03;2.42;;;39.00;58.10;;;;;;4989677;28;20216;-49
2021/04/19 11:33:23;;;;;;;3.63;1.73;;;38.60;58.10;;;;;;4991479;28;20287;-52
2021/04/19 11:35:58;;;;;;;3.10;2.08;;;38.20;58.40;;;;;;4990370;28;20276;-49
2021/04/19 11:38:29;;;;;;;2.78;1.90;;;37.90;60.00;;;;;;4988578;28;20234;-51
2021/04/19 11:41:02;;;;;;;5.20;2.03;;;37.50;60.00;;;;;;4991604;28;20224;-53
2021/04/19 11:43:32;;;;;;;2.90;1.90;;;37.30;60.90;;;;;;4991229;28;20234;-49
2021/04/19 11:46:03;;;;;;;2.90;2.13;;;37.00;61.70;;;;;;4990332;28;20694;-49
2021/04/19 11:48:35;;;;;;;3.78;2.35;;;36.80;62.40;;;;;;4991547;28;20283;-48
2021/04/19 11:51:06;;;;;;;4.72;3.33;;;36.60;63.40;;;;;;4991478;28;20209;-48
2021/04/19 11:53:41;;;;;;;7.07;4.38;;;36.40;64.40;;;;;;4986214;28;20574;-49
2021/04/19 11:56:12;;;;;;;6.13;3.45;;;36.10;64.80;;;;;;4990796;28;20228;-50
2021/04/19 11:58:43;;;;;;;4.13;2.67;;;36.00;65.20;;;;;;4976557;28;20365;-48
2021/04/19 12:01:15;;;;;;;5.18;3.50;;;35.80;65.60;;;;;;4991133;28;20813;-50
2021/04/19 12:03:45;;;;;;;5.10;2.83;;;35.70;66.00;;;;;;4990251;28;20710;-51
2021/04/19 12:06:17;;;;;;;3.20;2.65;;;35.70;66.70;;;;;;4991054;28;20315;-50
2021/04/19 12:08:49;;;;;;;3.50;2.80;;;35.60;66.80;;;;;;4990365;28;20299;-52
2021/04/19 12:11:22;;;;;;;5.13;2.80;;;35.50;67.50;;;;;;4990785;28;20208;-53
2021/04/19 12:13:58;;;;;;;4.82;2.92;;;35.30;67.70;;;;;;4991230;28;20220;-51
2021/04/19 12:16:29;;;;;;;3.60;2.60;;;35.30;68.00;;;;;;4991122;28;20600;-53
2021/04/19 12:18:59;;;;;;;3.35;2.80;;;35.20;68.20;;;;;;4989291;28;20223;-51
2021/04/19 12:21:30;;;;;;;4.85;2.90;;;35.10;68.60;;;;;;4990956;28;20232;-54
2021/04/19 12:24:06;;;;;;;3.78;3.20;;;35.00;68.90;;;;;;4990865;28;20299;-53
2021/04/19 12:26:36;;;;;;;4.05;2.88;;;35.00;69.40;;;;;;4990614;28;20311;-51
2021/04/19 12:29:13;;;;;;;3.72;2.58;;;35.00;69.40;;;;;;4989670;28;20258;-50
2021/04/19 12:31:44;;;;;;;4.30;2.70;;;34.90;69.50;;;;;;4990529;28;20663;-51
2021/04/19 12:34:14;;;;;;;3.95;2.80;;;34.90;69.90;;;;;;4990675;28;20200;-51
2021/04/19 12:36:45;;;;;;;3.20;2.85;;;34.90;70.20;;;;;;4990740;28;20548;-51
2021/04/19 12:39:17;;;;;;;6.40;3.25;;;34.80;70.20;;;;;;4989485;28;20274;-50
2021/04/19 12:41:48;;;;;;;5.22;3.47;;;34.80;70.50;;;;;;4976171;28;20197;-50
2021/04/19 12:44:18;;;;;;;4.93;3.45;;;34.80;70.60;;;;;;4990667;28;20237;-52
2021/04/19 12:46:48;;;;;;;4.03;3.30;;;34.80;70.80;;;;;;4990521;28;20323;-49
2021/04/19 12:49:21;;;;;;;4.47;3.05;;;34.70;71.00;;;;;;4990093;28;20211;-51
2021/04/19 12:51:52;;;;;;;4.95;3.63;;;34.70;71.00;;;;;;4989750;28;20723;-50
2021/04/19 12:54:23;;;;;;;4.53;3.50;;;34.60;71.20;;;;;;4990748;28;20207;-52
2021/04/19 12:56:53;;;;;;;6.35;4.07;;;34.60;71.40;;;;;;4990296;28;20779;-55
2021/04/19 12:59:24;;;;;;;6.22;4.32;;;34.50;71.50;;;;;;4990203;28;20289;-51
2021/04/19 13:01:54;;;;;;;5.45;3.65;;;34.40;71.20;;;;;;4989095;28;20330;-51
2021/04/19 13:04:25;;;;;;;4.97;4.03;;;34.40;71.80;;;;;;4989901;28;20243;-49
2021/04/19 13:06:55;;;;;;;5.85;4.57;;;34.40;72.00;;;;;;4990101;28;20219;-51
2021/04/19 13:09:27;;;;;;;6.72;5.50;;;34.40;72.30;;;;;;4989874;28;20291;-51
2021/04/19 13:11:58;;;;;;;6.75;5.03;;;34.30;72.40;;;;;;4989832;28;20211;-50
2021/04/19 13:14:28;;;;;;;8.45;5.25;;;34.30;72.60;;;;;;4989614;28;20204;-54
2021/04/19 13:16:59;;;;;;;7.75;5.75;;;34.20;72.80;;;;;;4989908;28;20262;-51
2021/04/19 13:19:29;;;;;;;8.13;6.38;;;34.20;73.20;;;;;;4989655;28;20657;-52
2021/04/19 13:22:01;;;;;;;6.68;5.25;;;34.10;73.50;;;;;;4990138;28;20215;-51
2021/04/19 13:24:32;;;;;;;8.43;5.43;;;34.10;73.70;;;;;;4989012;28;20633;-52
2021/04/19 13:27:03;;;;;;;7.15;5.38;;;34.10;74.00;;;;;;4989764;28;20303;-52
2021/04/19 13:29:34;;;;;;;6.03;5.30;;;34.10;74.10;;;;;;4989726;28;20640;-53
2021/04/19 13:32:05;;;;;;;7.55;5.03;;;34.00;74.30;;;;;;4989749;28;20207;-52
2021/04/19 13:34:35;;;;;;;7.88;5.53;;;34.00;74.50;;;;;;4988984;28;20287;-51
2021/04/19 13:37:06;;;;;;;8.23;5.10;;;34.00;75.50;;;;;;4975468;28;20798;-49
2021/04/19 13:39:37;;;;;;;6.15;4.95;;;33.90;74.80;;;;;;4989636;28;20208;-51
2021/04/19 13:42:08;;;;;;;5.78;4.88;;;33.90;75.10;;;;;;4989773;28;20208;-49
2021/04/19 13:44:46;;;;;;;5.07;4.55;;;33.90;75.10;;;;;;4989320;28;20196;-53
2021/04/19 13:47:16;;;;;;;4.60;3.83;;;33.90;75.20;;;;;;4974513;28;20684;-50
2021/04/19 13:49:47;;;;;;;5.38;4.78;;;33.80;75.30;;;;;;4989668;28;20211;-52
2021/04/19 13:52:17;;;;;;;7.72;4.28;;;33.80;75.50;;;;;;4989764;28;20215;-51
2021/04/19 13:54:49;;;;;;;5.55;3.83;;;33.80;75.60;;;;;;4989862;28;20647;-49
2021/04/19 13:57:20;;;;;;;4.97;4.45;;;33.80;75.90;;;;;;4988658;28;20232;-54
2021/04/19 13:59:51;;;;;;;4.47;3.92;;;33.80;75.90;;;;;;4989968;28;20259;-54
2021/04/19 14:02:24;;;;;;;7.45;5.05;;;33.80;76.00;;;;;;4989228;28;20790;-53
2021/04/19 14:04:55;;;;;;;6.13;4.75;;;33.70;76.10;;;;;;4989791;28;20812;-53
2021/04/19 14:07:25;;;;;;;5.10;4.38;;;33.70;76.20;;;;;;4988579;28;20216;-54
2021/04/19 14:09:57;;;;;;;4.97;3.92;;;33.70;77.10;;;;;;4989742;28;20286;-54
2021/04/19 14:12:28;;;;;;;4.25;3.78;;;33.70;76.60;;;;;;4989596;28;20208;-52
2021/04/19 14:14:59;;;;;;;4.40;3.85;;;33.70;76.70;;;;;;4989376;28;20200;-50
2021/04/19 14:17:29;;;;;;;5.00;4.07;;;33.60;76.70;;;;;;4989379;28;20196;-52
2021/04/19 14:20:00;;;;;;;7.35;4.40;;;33.60;76.80;;;;;;4989180;28;20212;-49
2021/04/19 14:22:31;;;;;;;3.80;3.45;;;33.60;77.00;;;;;;4989322;28;20287;-53
2021/04/19 14:25:03;;;;;;;3.72;3.30;;;33.60;77.00;;;;;;4947912;29;20224;-50
2021/04/19 14:27:33;;;;;;;3.22;2.92;;;33.60;77.10;;;;;;4947653;29;20403;-52
2021/04/19 14:30:03;;;;;;;4.70;3.08;;;33.50;77.30;;;;;;4946545;29;20692;-49
2021/04/19 14:32:34;;;;;;;3.20;2.80;;;33.50;77.50;;;;;;4945412;29;20202;-52
2021/04/19 14:35:06;;;;;;;3.00;2.50;;;33.50;77.60;;;;;;4947436;29;20261;-49
2021/04/19 14:37:36;;;;;;;5.10;2.72;;;33.50;77.90;;;;;;4947813;29;20225;-49
2021/04/19 14:40:09;;;;;;;3.33;2.47;;;33.50;77.90;;;;;;4946943;28;20201;-55
2021/04/19 14:42:39;;;;;;;3.10;2.50;;;33.40;78.30;;;;;;4949564;29;20289;-50
2021/04/19 14:45:09;;;;;;;3.00;2.75;;;33.40;78.30;;;;;;4950860;29;20202;-52
2021/04/19 14:47:40;;;;;;;3.20;2.58;;;33.40;78.50;;;;;;4950755;29;20213;-50
2021/04/19 14:50:11;;;;;;;4.38;3.03;;;33.30;78.60;;;;;;4982049;28;20207;-49
2021/04/19 14:52:42;;;;;;;3.20;2.90;;;33.30;78.80;;;;;;4991956;28;20254;-51
2021/04/19 14:55:14;;;;;;;2.90;2.13;;;33.20;78.70;;;;;;4990180;28;20192;-50
2021/04/19 14:57:45;;;;;;;2.50;2.25;;;33.20;78.90;;;;;;4992300;28;20697;-55
2021/04/19 15:00:17;;;;;;;3.35;2.47;;;33.20;78.90;;;;;;4991932;28;20259;-52
2021/04/19 15:02:48;;;;;;;2.75;2.42;;;33.20;79.20;;;;;;4990949;28;20232;-50
2021/04/19 15:05:19;;;;;;;2.53;2.17;;;33.10;79.10;;;;;;4991934;28;20298;-51
2021/04/19 15:07:49;;;;;;;3.80;2.33;;;33.10;79.20;;;;;;4989297;28;20295;-53
2021/04/19 15:10:21;;;;;;;3.60;3.17;;;33.10;79.40;;;;;;4992105;28;20215;-50
2021/04/19 15:12:51;;;;;;;4.03;3.67;;;33.00;79.40;;;;;;4991881;28;20196;-51
2021/04/19 15:15:22;;;;;;;5.57;3.50;;;33.00;79.40;;;;;;4991985;28;20757;-52
2021/04/19 15:17:53;;;;;;;3.97;3.58;;;33.00;80.40;;;;;;4991714;28;20191;-51
2021/04/19 15:20:23;;;;;;;3.47;3.17;;;33.00;79.60;;;;;;4991825;28;20196;-54
2021/04/19 15:22:53;;;;;;;3.65;2.28;;;33.00;79.60;;;;;;4991855;28;20192;-53
2021/04/19 15:25:25;;;;;;;3.60;2.15;;;32.90;79.60;;;;;;4990256;28;20196;-51
2021/04/19 15:27:55;;;;;;;3.70;2.28;;;33.00;79.70;;;;;;4989445;28;20310;-53
2021/04/19 15:30:26;;;;;;;2.45;2.20;;;32.90;79.60;;;;;;4990896;28;20204;-55
2021/04/19 15:32:56;;;;;;;2.40;2.10;;;32.90;79.80;;;;;;4991022;28;20208;-51
2021/04/19 15:35:27;;;;;;;2.47;2.28;;;32.90;80.00;;;;;;4990536;28;20575;-50
2021/04/19 15:37:58;;;;;;;2.42;2.22;;;32.80;80.20;;;;;;4989958;28;20188;-52
2021/04/19 15:40:30;;;;;;;2.83;2.20;;;32.80;80.30;;;;;;4991172;28;20279;-53
2021/04/19 15:42:59;;;;;;;4.72;2.17;;;32.80;80.40;;;;;;4990863;28;20210;-54
2021/04/19 15:45:30;;;;;;;3.03;2.42;;;32.80;80.30;;;;;;4988363;28;20656;-54
2021/04/19 15:48:00;;;;;;;3.72;2.22;;;32.80;80.40;;;;;;4990153;28;20328;-51
2021/04/19 15:50:31;;;;;;;3.55;2.40;;;32.70;80.30;;;;;;4988648;28;20636;-54
2021/04/19 15:53:01;;;;;;;4.57;2.58;;;32.70;80.50;;;;;;4989862;28;20295;-52
2021/04/19 15:55:49;;;;;;;3.17;2.08;;;32.70;80.70;;;;;;4990993;28;20193;-54
2021/04/19 15:58:19;;;;;;;4.45;2.28;;;32.60;80.90;;;;;;4990295;28;20288;-51
2021/04/19 16:00:50;;;;;;;2.75;2.15;;;32.60;81.10;;;;;;4991313;28;20222;-52
2021/04/19 16:03:21;;;;;;;2.97;2.13;;;32.60;81.20;;;;;;4990339;28;20235;-55
2021/04/19 16:05:51;;;;;;;3.55;1.90;;;32.60;81.50;;;;;;4990763;28;20287;-52
2021/04/19 16:08:21;;;;;;;3.50;1.75;;;32.60;81.60;;;;;;4989425;28;20646;-55
2021/04/19 16:10:53;;;;;;;1.70;1.50;;;32.50;81.60;;;;;;4991371;28;20295;-52
2021/04/19 16:13:23;;;;;;;2.38;1.60;;;32.50;81.80;;;;;;4991073;28;20228;-54
2021/04/19 16:15:53;;;;;;;2.67;1.70;;;32.50;81.80;;;;;;4991131;28;20623;-54
2021/04/19 16:18:23;;;;;;;2.15;1.95;;;32.50;82.00;;;;;;4990875;28;20204;-54
2021/04/19 16:20:54;;;;;;;1.65;1.42;;;32.50;82.10;;;;;;4990450;28;20204;-55
2021/04/19 16:23:24;;;;;;;1.90;1.55;;;32.40;82.10;;;;;;4990609;28;20240;-52
2021/04/19 16:25:55;;;;;;;1.88;1.45;;;32.40;82.10;;;;;;4991256;28;20629;-52
2021/04/19 16:28:26;;;;;;;1.67;1.58;;;32.40;82.20;;;;;;4991038;28;20220;-54